createdAt,value
2022-12-19T00:04:45.386Z,102467.72
2022-12-19T00:09:47.420Z,102466.16
2022-12-19T00:14:49.552Z,102459.97
2022-12-19T00:19:53.203Z,102453.09
2022-12-19T00:24:55.536Z,102443.03
2022-12-19T00:29:57.253Z,102431.38
2022-12-19T00:35:01.661Z,102424.50
2022-12-19T00:40:04.546Z,102417.91
2022-12-19T00:45:07.441Z,102406.88
2022-12-19T00:50:11.378Z,102404.69
2022-12-19T00:55:18.523Z,102397.47
2022-12-19T01:00:21.824Z,102374.53
2022-12-19T01:05:25.269Z,102375.22
2022-12-19T01:10:27.588Z,102371.06
2022-12-19T01:15:29.588Z,102353.91
2022-12-19T01:20:33.105Z,102341.50
2022-12-19T01:25:36.885Z,102351.00
2022-12-19T01:30:41.970Z,102337.31
2022-12-19T01:35:47.624Z,102337.34
2022-12-19T01:40:51.480Z,102324.84
2022-12-19T01:45:57.163Z,102317.31
2022-12-19T01:51:02.871Z,102318.22
2022-12-19T01:56:07.635Z,102290.78
2022-12-19T02:01:09.717Z,102289.44
2022-12-19T02:06:18.951Z,102273.03
2022-12-19T02:11:21.113Z,102274.22
2022-12-19T02:16:36.794Z,102275.25
2022-12-19T02:27:42.019Z,102265.34
2022-12-19T02:32:51.779Z,102255.78
2022-12-19T02:38:03.653Z,102258.59
2022-12-19T02:43:11.473Z,102247.34
2022-12-19T02:48:19.275Z,102241.84
2022-12-19T02:53:23.619Z,102237.56
2022-12-19T02:58:49.045Z,102247.13
2022-12-19T03:04:04.275Z,102243.53
2022-12-19T03:09:16.236Z,102247.38
2022-12-19T03:14:20.933Z,102240.84
2022-12-19T03:19:24.541Z,102243.66
2022-12-19T03:24:26.785Z,102226.34
2022-12-19T03:29:33.133Z,102222.81
2022-12-19T03:34:41.607Z,102214.03
2022-12-19T03:39:49.196Z,102220.56
2022-12-19T03:44:53.934Z,102220.81
2022-12-19T03:49:57.780Z,102206.84
2022-12-19T03:55:06.575Z,102205.03
2022-12-19T04:00:11.901Z,102196.50
2022-12-19T04:05:19.574Z,102193.09
2022-12-19T04:10:25.070Z,102195.56
2022-12-19T04:15:35.044Z,102207.28
2022-12-19T04:20:43.086Z,102196.25
2022-12-19T04:25:48.323Z,102197.38
2022-12-19T04:30:50.980Z,102220.69
2022-12-19T04:35:54.589Z,102214.03
2022-12-19T04:40:56.304Z,102201.91
2022-12-19T04:45:58.455Z,102190.84
2022-12-19T04:51:02.084Z,102176.69
2022-12-19T04:56:06.013Z,102181.41
2022-12-19T05:01:08.671Z,102175.09
2022-12-19T05:06:14.387Z,102179.13
2022-12-19T05:11:19.759Z,102175.28
2022-12-19T05:16:21.947Z,102175.84
2022-12-19T05:21:25.332Z,102166.69
2022-12-19T05:26:27.537Z,102176.81
2022-12-19T05:31:29.745Z,102172.97
2022-12-19T05:36:33.304Z,102168.91
2022-12-19T05:41:35.545Z,102159.06
2022-12-19T05:46:37.427Z,102159.59
2022-12-19T05:51:40.929Z,102145.25
2022-12-19T05:56:42.850Z,102147.38
2022-12-19T06:01:45.242Z,102136.53
2022-12-19T06:06:48.390Z,102130.84
2022-12-19T06:11:50.509Z,102118.19
2022-12-19T06:16:52.633Z,102113.31
2022-12-19T06:21:56.163Z,102108.53
2022-12-19T06:26:58.350Z,102090.78
2022-12-19T06:32:00.428Z,102087.41
2022-12-19T06:37:08.135Z,102100.66
2022-12-19T06:42:10.722Z,102088.19
2022-12-19T06:47:12.808Z,102075.44
2022-12-19T06:52:16.437Z,102080.22
2022-12-19T06:57:18.786Z,102092.63
2022-12-19T07:02:27.713Z,102098.19
2022-12-19T07:07:31.486Z,102102.22
2022-12-19T07:12:33.615Z,102106.19
2022-12-19T07:17:35.700Z,102087.41
2022-12-19T07:22:39.566Z,102083.41
2022-12-19T07:27:41.740Z,102092.41
2022-12-19T07:32:43.467Z,102088.69
2022-12-19T07:37:47.155Z,102091.56
2022-12-19T07:42:48.953Z,102076.91
2022-12-19T07:47:51.241Z,102079.47
2022-12-19T07:52:54.410Z,102072.44
2022-12-19T07:57:56.568Z,102075.50
2022-12-19T08:02:59.194Z,102077.16
2022-12-19T08:08:02.606Z,102081.22
2022-12-19T08:13:04.699Z,102077.41
2022-12-19T08:18:06.462Z,102064.31
2022-12-19T08:23:09.568Z,102041.38
2022-12-19T08:28:11.382Z,102044.41
2022-12-19T08:33:13.116Z,102047.47
2022-12-19T08:38:16.785Z,102031.41
2022-12-19T08:43:18.484Z,102018.94
2022-12-19T08:48:20.372Z,102017.06
2022-12-19T08:53:26.633Z,102004.81
2022-12-19T08:58:29.871Z,102005.03
2022-12-19T09:03:44.182Z,101993.53
2022-12-19T09:09:00.023Z,101989.88
2022-12-19T09:14:02.492Z,101993.50
2022-12-19T09:19:04.485Z,101990.66
2022-12-19T09:24:10.070Z,101987.00
2022-12-19T09:29:20.302Z,101986.78
2022-12-19T09:34:24.366Z,101977.56
2022-12-19T09:39:37.191Z,101968.25
2022-12-19T09:44:56.496Z,101953.56
2022-12-19T09:49:59.576Z,101950.75
2022-12-19T09:55:06.280Z,101922.34
2022-12-19T10:00:13.472Z,101927.22
2022-12-19T10:05:46.657Z,101917.59
2022-12-19T10:12:38.035Z,101902.75
2022-12-19T10:16:25.623Z,101888.22
2022-12-19T10:22:07.597Z,101888.34
2022-12-19T10:26:59.633Z,101886.09
2022-12-19T10:32:08.215Z,101877.59
2022-12-19T10:37:26.626Z,101868.13
2022-12-19T10:42:46.322Z,101854.56
2022-12-19T10:47:51.759Z,101848.63
2022-12-19T10:52:55.891Z,101841.84
2022-12-19T10:58:00.160Z,101832.75
2022-12-19T11:03:13.222Z,101820.75
2022-12-19T11:08:21.181Z,101825.09
2022-12-19T11:18:22.320Z,101807.66
2022-12-19T11:29:15.977Z,101788.09
2022-12-19T11:30:41.547Z,101787.06
2022-12-19T11:35:18.161Z,101789.22
2022-12-19T11:40:31.438Z,101779.59
2022-12-19T11:45:45.346Z,101770.78
2022-12-19T11:50:59.858Z,101760.50
2022-12-19T11:56:16.264Z,101768.31
2022-12-19T12:01:36.480Z,101756.63
2022-12-19T12:06:47.403Z,101746.72
2022-12-19T12:15:47.234Z,101741.22
2022-12-19T12:31:01.482Z,101738.59
2022-12-19T12:31:51.533Z,101731.63
2022-12-19T12:31:54.265Z,101732.56
2022-12-19T12:35:28.680Z,101729.28
2022-12-19T12:40:23.940Z,101722.41
2022-12-19T12:45:35.082Z,101728.66
2022-12-19T12:50:41.181Z,101715.06
2022-12-19T12:55:43.077Z,101702.19
2022-12-19T13:01:09.043Z,101703.28
2022-12-19T13:06:26.062Z,101694.75
2022-12-19T13:11:41.190Z,101685.41
2022-12-19T13:16:51.873Z,101677.75
2022-12-19T13:22:18.289Z,101685.66
2022-12-19T13:27:36.270Z,101676.94
2022-12-19T13:33:07.364Z,101670.84
2022-12-19T13:39:54.016Z,101666.56
2022-12-19T13:43:44.245Z,101662.22
2022-12-19T13:48:49.499Z,101674.44
2022-12-19T13:53:59.622Z,101650.97
2022-12-19T13:59:04.238Z,101660.72
2022-12-19T14:04:08.743Z,101661.72
2022-12-19T14:11:26.193Z,101652.25
2022-12-19T14:15:13.407Z,101663.88
2022-12-19T14:22:02.404Z,101640.53
2022-12-19T14:28:22.203Z,101642.63
2022-12-19T14:31:14.533Z,101636.59
2022-12-19T14:36:26.492Z,101633.13
2022-12-19T14:41:43.549Z,101637.78
2022-12-19T14:54:07.606Z,101630.09
2022-12-19T14:54:35.848Z,101633.09
2022-12-19T14:58:52.969Z,101631.47
2022-12-19T15:03:31.822Z,101640.28
2022-12-19T15:09:34.279Z,101625.56
2022-12-19T15:14:57.105Z,101618.13
2022-12-19T15:19:27.066Z,101623.41
2022-12-19T15:24:28.908Z,101620.22
2022-12-19T15:29:34.092Z,101622.25
2022-12-19T15:34:41.590Z,101628.56
2022-12-19T15:39:47.115Z,101620.13
2022-12-19T15:44:52.958Z,101620.19
2022-12-19T15:49:54.708Z,101604.84
2022-12-19T15:54:56.563Z,101598.19
2022-12-19T16:00:02.363Z,101608.00
2022-12-19T16:05:05.204Z,101593.25
2022-12-19T16:10:08.870Z,101584.66
2022-12-19T16:15:19.798Z,101595.25
2022-12-19T16:20:23.861Z,101590.13
2022-12-19T16:25:32.475Z,101587.09
2022-12-19T16:30:35.760Z,101592.47
2022-12-19T16:40:59.318Z,101583.22
2022-12-19T16:46:05.740Z,101576.34
2022-12-19T16:51:16.715Z,101580.91
2022-12-19T16:56:24.566Z,101581.03
2022-12-19T17:01:28.531Z,101576.84
2022-12-19T17:06:30.998Z,101580.44
2022-12-19T17:11:33.489Z,101575.28
2022-12-19T17:16:37.466Z,101564.97
2022-12-19T17:21:39.308Z,101568.63
2022-12-19T17:26:41.611Z,101562.66
2022-12-19T17:31:45.174Z,101566.03
2022-12-19T17:36:47.315Z,101571.50
2022-12-19T17:41:49.925Z,101567.22
2022-12-19T17:46:53.201Z,101551.50
2022-12-19T17:51:55.871Z,101568.28
2022-12-19T17:56:58.374Z,101565.81
2022-12-19T18:02:01.929Z,101568.56
2022-12-19T18:07:09.748Z,101568.53
2022-12-19T18:12:11.510Z,101552.66
2022-12-19T18:17:21.591Z,101561.75
2022-12-19T18:22:23.393Z,101559.25
2022-12-19T18:27:25.122Z,101553.22
2022-12-19T18:32:28.460Z,101562.03
2022-12-19T18:37:30.852Z,101558.56
2022-12-19T18:42:32.983Z,101549.84
2022-12-19T18:47:36.430Z,101550.91
2022-12-19T18:52:38.730Z,101543.97
2022-12-19T18:57:40.464Z,101545.94
2022-12-19T19:02:49.093Z,101544.19
2022-12-19T19:07:51.383Z,101518.59
2022-12-19T19:12:53.970Z,101525.66
2022-12-19T19:17:59.960Z,101528.22
2022-12-19T19:23:02.575Z,101517.78
2022-12-19T19:28:05.395Z,101508.91
2022-12-19T19:33:13.524Z,101510.63
2022-12-19T19:38:17.001Z,101506.19
2022-12-19T19:43:21.735Z,101503.69
2022-12-19T19:48:25.645Z,101515.00
2022-12-19T19:53:28.396Z,101514.72
2022-12-19T19:58:30.974Z,101511.25
2022-12-19T20:03:36.241Z,101507.03
2022-12-19T20:08:39.971Z,101505.81
2022-12-19T20:13:43.360Z,101507.72
2022-12-19T20:18:49.588Z,101502.53
2022-12-19T20:23:53.805Z,101486.63
2022-12-19T20:28:56.521Z,101493.69
2022-12-19T20:34:00.115Z,101498.63
2022-12-19T20:39:02.570Z,101495.13
2022-12-19T20:44:05.055Z,101483.38
2022-12-19T20:49:09.454Z,101485.69
2022-12-19T20:54:11.628Z,101490.03
2022-12-19T20:59:13.717Z,101489.03
2022-12-19T21:04:17.454Z,101502.00
2022-12-19T21:09:19.651Z,101497.41
2022-12-19T21:14:21.425Z,101499.09
2022-12-19T21:19:25.001Z,101500.22
2022-12-19T21:24:26.865Z,101506.06
2022-12-19T21:29:29.520Z,101486.88
2022-12-19T21:34:32.797Z,101481.84
2022-12-19T21:39:34.931Z,101469.56
2022-12-19T21:44:37.397Z,101503.78
2022-12-19T21:49:40.768Z,101502.66
2022-12-19T21:54:42.953Z,101490.03
2022-12-19T21:59:45.040Z,101489.38
2022-12-19T22:04:49.865Z,101488.03
2022-12-19T22:09:52.268Z,101477.44
2022-12-19T22:14:54.101Z,101493.16
2022-12-19T22:19:57.542Z,101483.94
2022-12-19T22:24:59.636Z,101474.59
2022-12-19T22:30:06.764Z,101474.44
2022-12-19T22:35:14.355Z,101473.31
2022-12-19T22:40:16.617Z,101457.66
2022-12-19T22:45:18.729Z,101466.50
2022-12-19T22:50:22.391Z,101450.94
2022-12-19T22:55:24.497Z,101442.13
2022-12-19T23:00:26.240Z,101455.25
2022-12-19T23:05:29.965Z,101459.53
2022-12-19T23:10:32.420Z,101452.84
2022-12-19T23:15:35.168Z,101460.72
2022-12-19T23:20:38.846Z,101458.91
2022-12-19T23:25:42.415Z,101462.44
2022-12-19T23:30:44.537Z,101452.78
2022-12-19T23:35:47.983Z,101450.00
2022-12-19T23:40:49.905Z,101446.66
2022-12-19T23:45:52.101Z,101452.13
2022-12-19T23:51:00.087Z,101442.63
2022-12-19T23:56:03.794Z,101444.47
